Accueil
METAR-TAF:

METAR-TAF

Aéroports :

Santander, Espagne

Aéroport de Santander

latitude: 43-26N, longitude: 003-49W, altitude: 6 m

Observation

Le bulletin a été fait il y a 22 minutes, à 09:30 UTC
Vent 2 kt de direction variable
Température 23°C
Humidité 69%
Pression 1021 hPa
Visibilité 10 km ou plus
Quelques nuages à une hauteur de 2000 ft

METAR: LEXJ 170930Z VRB02KT 9999 FEW020 23/17 Q1021

Heure: 11:52 (09:52 UTC)

Prévision

Le bulletin a été fait il y a 1 heure et 52 minutes, à 08:00 UTC
Prévision valable du 17 à 09 UTC au 18 à 09 UTC
Vent 3 kt de sud/sud-ouest
Visibilité 10 km ou plus
Quelques nuages à une hauteur de 2000 ft
Temporairement
du 17 à 11 UTC au 17 à 20 UTC
Vent 10 kt de est/nord-est
Probabilité 40% :
Temporairement
du 18 à 00 UTC au 18 à 09 UTC
Nuages fragmentés à une hauteur de 1000 ft

TAF: LEXJ 170800Z 1709/1809 20003KT 9999 FEW020 TX26/1714Z TN15/1803Z TEMPO 1711/1720 06010KT PROB40 TEMPO 1800/1809 BKN010

Observations et prévisions météorologiques de plus de 4000 aéroports (messages METAR et TAF).

Les stations disponibles sont représentées par des disques jaunes et rouges sur la carte.

Passer la souris dessus pour voir le nom de la station.

Cliquer dessus pour voir les observations et prévisions météorologiques.

Pour changer de carte: cliquez sur les boutons verts avec une croix noire pour zoomer, sur le bouton vert avec un tiret pour effectuer un zoom arrière, ou sur les flèches vertes pour les cartes adjacentes.


METAR-TAF: